sensor_id;sensor_type;location;lat;lon;timestamp;pressure;altitude;pressure_sealevel;temperature;humidity
63652;BME280;49801;37.536;-122.304;2022-08-01T00:00:11;101356.75;;;24.06;46.85
63652;BME280;49801;37.536;-122.304;2022-08-01T00:00:38;101347.38;;;24.07;46.87
63652;BME280;49801;37.536;-122.304;2022-08-01T00:01:04;101374.81;;;24.26;46.88
63652;BME280;49801;37.536;-122.304;2022-08-01T00:01:30;101386.06;;;24.36;46.66
63652;BME280;49801;37.536;-122.304;2022-08-01T00:01:56;101302.00;;;23.91;46.42
63652;BME280;49801;37.536;-122.304;2022-08-01T00:02:22;101397.13;;;24.53;46.05
63652;BME280;49801;37.536;-122.304;2022-08-01T00:02:49;101379.28;;;24.44;45.94
63652;BME280;49801;37.536;-122.304;2022-08-01T00:03:15;101397.50;;;24.57;46.07
63652;BME280;49801;37.536;-122.304;2022-08-01T00:03:41;101403.75;;;24.64;46.70
63652;BME280;49801;37.536;-122.304;2022-08-01T00:04:08;101346.06;;;24.44;46.40
63652;BME280;49801;37.536;-122.304;2022-08-01T00:04:34;101385.53;;;24.68;46.48
63652;BME280;49801;37.536;-122.304;2022-08-01T00:05:00;101361.53;;;24.57;46.06
63652;BME280;49801;37.536;-122.304;2022-08-01T00:05:27;101390.00;;;24.69;45.88
63652;BME280;49801;37.536;-122.304;2022-08-01T00:05:53;101375.44;;;24.62;45.74
63652;BME280;49801;37.536;-122.304;2022-08-01T00:06:19;101379.91;;;24.63;45.57
63652;BME280;49801;37.536;-122.304;2022-08-01T00:06:45;101376.22;;;24.57;45.91
63652;BME280;49801;37.536;-122.304;2022-08-01T00:07:11;101390.16;;;24.79;45.89
63652;BME280;49801;37.536;-122.304;2022-08-01T00:07:37;101389.63;;;24.82;45.25
63652;BME280;49801;37.536;-122.304;2022-08-01T00:08:04;101371.94;;;24.83;45.18
63652;BME280;49801;37.536;-122.304;2022-08-01T00:08:30;101347.44;;;24.58;44.81
63652;BME280;49801;37.536;-122.304;2022-08-01T00:08:57;101372.50;;;24.85;44.94
63652;BME280;49801;37.536;-122.304;2022-08-01T00:09:23;101307.66;;;24.47;44.67
63652;BME280;49801;37.536;-122.304;2022-08-01T00:09:49;101305.91;;;24.41;44.33
63652;BME280;49801;37.536;-122.304;2022-08-01T00:10:17;101403.06;;;24.90;44.77
63652;BME280;49801;37.536;-122.304;2022-08-01T00:10:43;101369.66;;;24.80;44.70
63652;BME280;49801;37.536;-122.304;2022-08-01T00:11:09;101382.41;;;24.98;44.72
63652;BME280;49801;37.536;-122.304;2022-08-01T00:11:36;101376.16;;;25.08;44.58
63652;BME280;49801;37.536;-122.304;2022-08-01T00:12:02;101370.63;;;25.08;44.51
63652;BME280;49801;37.536;-122.304;2022-08-01T00:12:30;101398.16;;;25.32;44.32
63652;BME280;49801;37.536;-122.304;2022-08-01T00:12:56;101340.06;;;25.03;44.46
63652;BME280;49801;37.536;-122.304;2022-08-01T00:13:22;101303.84;;;24.87;44.30
63652;BME280;49801;37.536;-122.304;2022-08-01T00:13:48;101410.16;;;25.59;44.27
63652;BME280;49801;37.536;-122.304;2022-08-01T00:14:15;101385.66;;;25.51;43.77
63652;BME280;49801;37.536;-122.304;2022-08-01T00:14:41;101388.38;;;25.46;43.64
63652;BME280;49801;37.536;-122.304;2022-08-01T00:15:10;101396.09;;;25.44;43.36
63652;BME280;49801;37.536;-122.304;2022-08-01T00:15:36;101316.06;;;25.08;43.21
63652;BME280;49801;37.536;-122.304;2022-08-01T00:16:03;101390.31;;;25.45;43.57
63652;BME280;49801;37.536;-122.304;2022-08-01T00:16:29;101364.91;;;25.32;43.52
63652;BME280;49801;37.536;-122.304;2022-08-01T00:16:55;101394.44;;;25.43;43.75
63652;BME280;49801;37.536;-122.304;2022-08-01T00:17:22;101358.03;;;25.17;43.84
63652;BME280;49801;37.536;-122.304;2022-08-01T00:17:48;101334.50;;;25.20;43.58
63652;BME280;49801;37.536;-122.304;2022-08-01T00:18:16;101396.38;;;25.64;43.29
63652;BME280;49801;37.536;-122.304;2022-08-01T00:18:45;101401.09;;;25.64;43.75
63652;BME280;49801;37.536;-122.304;2022-08-01T00:19:11;101398.63;;;25.68;43.19
63652;BME280;49801;37.536;-122.304;2022-08-01T00:19:37;101344.56;;;25.43;43.41
63652;BME280;49801;37.536;-122.304;2022-08-01T00:20:05;101365.16;;;25.52;43.36
63652;BME280;49801;37.536;-122.304;2022-08-01T00:20:32;101403.47;;;25.55;43.47
63652;BME280;49801;37.536;-122.304;2022-08-01T00:20:58;101386.34;;;25.58;43.23
63652;BME280;49801;37.536;-122.304;2022-08-01T00:21:24;101385.28;;;25.64;43.41
63652;BME280;49801;37.536;-122.304;2022-08-01T00:21:51;101370.22;;;25.55;43.46
63652;BME280;49801;37.536;-122.304;2022-08-01T00:22:17;101363.97;;;25.43;43.22
63652;BME280;49801;37.536;-122.304;2022-08-01T00:22:43;101368.50;;;25.54;43.30
63652;BME280;49801;37.536;-122.304;2022-08-01T00:23:12;101414.00;;;25.75;43.31
63652;BME280;49801;37.536;-122.304;2022-08-01T00:23:38;101333.66;;;25.36;43.42
63652;BME280;49801;37.536;-122.304;2022-08-01T00:24:05;101269.66;;;24.99;43.26
63652;BME280;49801;37.536;-122.304;2022-08-01T00:24:31;101373.81;;;25.78;43.02
63652;BME280;49801;37.536;-122.304;2022-08-01T00:24:57;101378.69;;;25.93;43.01
63652;BME280;49801;37.536;-122.304;2022-08-01T00:25:23;101372.38;;;25.97;42.90
63652;BME280;49801;37.536;-122.304;2022-08-01T00:25:52;101386.84;;;25.99;42.99
63652;BME280;49801;37.536;-122.304;2022-08-01T00:26:18;101386.84;;;25.99;42.81
63652;BME280;49801;37.536;-122.304;2022-08-01T00:26:46;101360.50;;;25.80;42.75
63652;BME280;49801;37.536;-122.304;2022-08-01T00:27:12;101342.59;;;25.66;42.54
63652;BME280;49801;37.536;-122.304;2022-08-01T00:27:38;101337.97;;;25.49;43.09
63652;BME280;49801;37.536;-122.304;2022-08-01T00:28:04;101384.78;;;25.68;43.59
63652;BME280;49801;37.536;-122.304;2022-08-01T00:28:34;101387.41;;;25.79;43.46
63652;BME280;49801;37.536;-122.304;2022-08-01T00:29:00;101381.53;;;25.76;43.16
63652;BME280;49801;37.536;-122.304;2022-08-01T00:29:26;101371.72;;;25.46;43.35
63652;BME280;49801;37.536;-122.304;2022-08-01T00:29:53;101400.50;;;25.40;43.27
63652;BME280;49801;37.536;-122.304;2022-08-01T00:30:19;101390.09;;;25.13;43.84
63652;BME280;49801;37.536;-122.304;2022-08-01T00:30:45;101351.00;;;24.93;43.76
63652;BME280;49801;37.536;-122.304;2022-08-01T00:31:12;101399.69;;;25.22;43.94
63652;BME280;49801;37.536;-122.304;2022-08-01T00:31:38;101370.94;;;25.12;43.96
63652;BME280;49801;37.536;-122.304;2022-08-01T00:32:05;101399.03;;;25.15;44.20
63652;BME280;49801;37.536;-122.304;2022-08-01T00:32:32;101396.44;;;25.25;44.01
63652;BME280;49801;37.536;-122.304;2022-08-01T00:32:58;101345.31;;;24.82;44.29
63652;BME280;49801;37.536;-122.304;2022-08-01T00:33:24;101398.66;;;25.29;44.37
63652;BME280;49801;37.536;-122.304;2022-08-01T00:33:51;101305.59;;;24.94;44.21
63652;BME280;49801;37.536;-122.304;2022-08-01T00:34:20;101392.91;;;25.52;43.66
63652;BME280;49801;37.536;-122.304;2022-08-01T00:34:46;101368.72;;;25.25;43.86
63652;BME280;49801;37.536;-122.304;2022-08-01T00:35:12;101383.72;;;25.30;44.17
63652;BME280;49801;37.536;-122.304;2022-08-01T00:35:41;101353.00;;;25.14;43.76
63652;BME280;49801;37.536;-122.304;2022-08-01T00:36:08;101406.19;;;25.50;44.04
63652;BME280;49801;37.536;-122.304;2022-08-01T00:36:34;101364.41;;;25.35;43.69
63652;BME280;49801;37.536;-122.304;2022-08-01T00:37:00;101393.03;;;25.62;43.67
63652;BME280;49801;37.536;-122.304;2022-08-01T00:37:26;101382.50;;;25.42;43.87
63652;BME280;49801;37.536;-122.304;2022-08-01T00:37:53;101379.81;;;25.25;44.14
63652;BME280;49801;37.536;-122.304;2022-08-01T00:38:19;101379.56;;;25.10;44.34
63652;BME280;49801;37.536;-122.304;2022-08-01T00:38:45;101370.38;;;25.09;44.17
63652;BME280;49801;37.536;-122.304;2022-08-01T00:39:11;101375.50;;;25.01;44.58
63652;BME280;49801;37.536;-122.304;2022-08-01T00:39:37;101382.41;;;25.15;44.39
63652;BME280;49801;37.536;-122.304;2022-08-01T00:40:03;101380.84;;;25.24;44.37
63652;BME280;49801;37.536;-122.304;2022-08-01T00:40:30;101394.94;;;25.40;44.14
63652;BME280;49801;37.536;-122.304;2022-08-01T00:40:56;101368.06;;;25.23;44.24
63652;BME280;49801;37.536;-122.304;2022-08-01T00:41:22;101399.00;;;25.54;44.02
63652;BME280;49801;37.536;-122.304;2022-08-01T00:41:48;101351.09;;;25.37;43.78
63652;BME280;49801;37.536;-122.304;2022-08-01T00:42:15;101376.38;;;25.40;43.85
63652;BME280;49801;37.536;-122.304;2022-08-01T00:42:59;101389.53;;;25.50;43.82
63652;BME280;49801;37.536;-122.304;2022-08-01T00:43:25;101362.19;;;25.37;43.63
63652;BME280;49801;37.536;-122.304;2022-08-01T00:43:52;101362.97;;;25.54;43.71
63652;BME280;49801;37.536;-122.304;2022-08-01T00:44:18;101308.66;;;25.14;43.39
63652;BME280;49801;37.536;-122.304;2022-08-01T00:44:45;101356.59;;;25.32;43.87
63652;BME280;49801;37.536;-122.304;2022-08-01T00:45:14;101372.28;;;25.43;43.87
63652;BME280;49801;37.536;-122.304;2022-08-01T00:45:40;101369.75;;;25.41;43.82
63652;BME280;49801;37.536;-122.304;2022-08-01T00:46:06;101390.13;;;25.52;43.38
63652;BME280;49801;37.536;-122.304;2022-08-01T00:46:33;101387.28;;;25.47;43.33
63652;BME280;49801;37.536;-122.304;2022-08-01T00:46:59;101360.47;;;25.31;43.65
63652;BME280;49801;37.536;-122.304;2022-08-01T00:47:26;101353.94;;;25.42;43.34
63652;BME280;49801;37.536;-122.304;2022-08-01T00:47:52;101394.25;;;25.72;43.23
63652;BME280;49801;37.536;-122.304;2022-08-01T00:48:18;101374.06;;;25.54;43.14
63652;BME280;49801;37.536;-122.304;2022-08-01T00:48:44;101380.13;;;25.51;43.43
63652;BME280;49801;37.536;-122.304;2022-08-01T00:49:11;101391.56;;;25.55;43.46
63652;BME280;49801;37.536;-122.304;2022-08-01T00:49:37;101373.41;;;25.47;43.37
63652;BME280;49801;37.536;-122.304;2022-08-01T00:50:04;101361.69;;;25.40;43.41
63652;BME280;49801;37.536;-122.304;2022-08-01T00:50:31;101358.34;;;25.38;43.53
63652;BME280;49801;37.536;-122.304;2022-08-01T00:50:57;101380.13;;;25.51;43.32
63652;BME280;49801;37.536;-122.304;2022-08-01T00:51:24;101340.28;;;25.18;43.51
63652;BME280;49801;37.536;-122.304;2022-08-01T00:51:51;101397.00;;;25.27;43.47
63652;BME280;49801;37.536;-122.304;2022-08-01T00:52:17;101372.91;;;24.94;43.82
63652;BME280;49801;37.536;-122.304;2022-08-01T00:52:44;101385.66;;;25.12;43.99
63652;BME280;49801;37.536;-122.304;2022-08-01T00:53:10;101301.31;;;24.64;44.13
63652;BME280;49801;37.536;-122.304;2022-08-01T00:53:36;101388.94;;;25.26;44.16
63652;BME280;49801;37.536;-122.304;2022-08-01T00:54:02;101356.28;;;25.11;44.06
63652;BME280;49801;37.536;-122.304;2022-08-01T00:54:29;101361.56;;;25.13;43.57
63652;BME280;49801;37.536;-122.304;2022-08-01T00:54:55;101385.50;;;25.36;43.49
63652;BME280;49801;37.536;-122.304;2022-08-01T00:55:21;101349.66;;;25.12;43.44
63652;BME280;49801;37.536;-122.304;2022-08-01T00:55:48;101365.31;;;25.23;43.57
63652;BME280;49801;37.536;-122.304;2022-08-01T00:56:14;101366.28;;;25.12;43.72
63652;BME280;49801;37.536;-122.304;2022-08-01T00:56:40;101385.41;;;25.31;43.75
63652;BME280;49801;37.536;-122.304;2022-08-01T00:57:07;101393.59;;;25.42;43.81
63652;BME280;49801;37.536;-122.304;2022-08-01T00:57:35;101393.97;;;25.51;43.60
63652;BME280;49801;37.536;-122.304;2022-08-01T00:58:02;101373.34;;;25.42;43.12
63652;BME280;49801;37.536;-122.304;2022-08-01T00:58:28;101384.03;;;25.33;43.63
63652;BME280;49801;37.536;-122.304;2022-08-01T00:58:57;101393.25;;;25.39;43.73
63652;BME280;49801;37.536;-122.304;2022-08-01T00:59:24;101356.09;;;25.18;43.23
63652;BME280;49801;37.536;-122.304;2022-08-01T00:59:52;101356.34;;;25.16;43.21
63652;BME280;49801;37.536;-122.304;2022-08-01T01:00:18;101386.50;;;25.30;43.50
63652;BME280;49801;37.536;-122.304;2022-08-01T01:00:45;101380.72;;;25.14;43.50
63652;BME280;49801;37.536;-122.304;2022-08-01T01:01:12;101342.66;;;24.70;43.86
63652;BME280;49801;37.536;-122.304;2022-08-01T01:01:39;101380.16;;;24.95;44.13
63652;BME280;49801;37.536;-122.304;2022-08-01T01:02:05;101388.78;;;24.99;44.01
63652;BME280;49801;37.536;-122.304;2022-08-01T01:02:32;101350.28;;;24.80;44.08
63652;BME280;49801;37.536;-122.304;2022-08-01T01:02:59;101352.63;;;24.71;44.40
63652;BME280;49801;37.536;-122.304;2022-08-01T01:03:26;101376.38;;;24.84;44.37
63652;BME280;49801;37.536;-122.304;2022-08-01T01:03:52;101353.56;;;24.60;44.34
63652;BME280;49801;37.536;-122.304;2022-08-01T01:04:19;101355.47;;;24.60;44.61
63652;BME280;49801;37.536;-122.304;2022-08-01T01:04:45;101390.75;;;24.81;44.56
63652;BME280;49801;37.536;-122.304;2022-08-01T01:05:11;101310.06;;;24.27;44.58
63652;BME280;49801;37.536;-122.304;2022-08-01T01:05:52;101395.69;;;24.79;44.40
63652;BME280;49801;37.536;-122.304;2022-08-01T01:08:13;101358.09;;;24.66;44.33
63652;BME280;49801;37.536;-122.304;2022-08-01T01:09:09;101384.63;;;24.79;44.50
63652;BME280;49801;37.536;-122.304;2022-08-01T01:09:56;101390.16;;;24.79;44.76
63652;BME280;49801;37.536;-122.304;2022-08-01T01:10:37;101387.81;;;24.71;44.80
63652;BME280;49801;37.536;-122.304;2022-08-01T01:11:13;101385.63;;;24.73;44.82
63652;BME280;49801;37.536;-122.304;2022-08-01T01:13:04;101382.34;;;24.76;44.84
63652;BME280;49801;37.536;-122.304;2022-08-01T01:13:49;101371.50;;;24.58;45.15
63652;BME280;49801;37.536;-122.304;2022-08-01T01:14:33;101387.63;;;24.61;45.34
63652;BME280;49801;37.536;-122.304;2022-08-01T01:15:51;101353.03;;;24.46;45.09
63652;BME280;49801;37.536;-122.304;2022-08-01T01:16:23;101376.66;;;24.37;45.50
63652;BME280;49801;37.536;-122.304;2022-08-01T01:16:51;101366.63;;;24.31;45.65
63652;BME280;49801;37.536;-122.304;2022-08-01T01:17:27;101346.78;;;24.22;45.59
63652;BME280;49801;37.536;-122.304;2022-08-01T01:18:47;101357.41;;;24.13;45.80
63652;BME280;49801;37.536;-122.304;2022-08-01T01:19:17;101387.34;;;24.45;45.60
63652;BME280;49801;37.536;-122.304;2022-08-01T01:19:51;101387.59;;;24.44;45.68
63652;BME280;49801;37.536;-122.304;2022-08-01T01:20:23;101363.75;;;24.26;45.73
63652;BME280;49801;37.536;-122.304;2022-08-01T01:21:00;101373.72;;;24.27;45.66
63652;BME280;49801;37.536;-122.304;2022-08-01T01:23:57;101394.78;;;23.99;46.61
63652;BME280;49801;37.536;-122.304;2022-08-01T01:25:09;101379.81;;;23.71;47.08
63652;BME280;49801;37.536;-122.304;2022-08-01T01:27:21;101376.69;;;23.80;46.55
63652;BME280;49801;37.536;-122.304;2022-08-01T01:29:32;101362.75;;;23.74;46.74
63652;BME280;49801;37.536;-122.304;2022-08-01T01:30:00;101357.47;;;23.85;46.31
63652;BME280;49801;37.536;-122.304;2022-08-01T01:30:29;101374.59;;;23.99;46.25
63652;BME280;49801;37.536;-122.304;2022-08-01T01:31:00;101355.38;;;23.92;46.14
63652;BME280;49801;37.536;-122.304;2022-08-01T01:31:27;101367.41;;;23.86;46.41
63652;BME280;49801;37.536;-122.304;2022-08-01T01:32:04;101338.53;;;23.53;46.18
63652;BME280;49801;37.536;-122.304;2022-08-01T01:32:39;101379.00;;;23.71;46.58
63652;BME280;49801;37.536;-122.304;2022-08-01T01:33:10;101340.97;;;23.37;46.65
63652;BME280;49801;37.536;-122.304;2022-08-01T01:33:40;101366.56;;;23.33;47.28
63652;BME280;49801;37.536;-122.304;2022-08-01T01:34:08;101337.03;;;23.21;46.93
63652;BME280;49801;37.536;-122.304;2022-08-01T01:34:38;101311.09;;;22.99;47.22
63652;BME280;49801;37.536;-122.304;2022-08-01T01:35:06;101384.00;;;23.33;47.41
63652;BME280;49801;37.536;-122.304;2022-08-01T01:35:36;101367.66;;;23.20;47.39
63652;BME280;49801;37.536;-122.304;2022-08-01T01:36:05;101390.00;;;23.30;47.71
63652;BME280;49801;37.536;-122.304;2022-08-01T01:36:32;101347.50;;;23.08;47.77
63652;BME280;49801;37.536;-122.304;2022-08-01T01:37:01;101364.78;;;23.15;47.71
63652;BME280;49801;37.536;-122.304;2022-08-01T01:37:33;101385.53;;;23.41;47.75
63652;BME280;49801;37.536;-122.304;2022-08-01T01:38:13;101389.50;;;23.45;47.58
63652;BME280;49801;37.536;-122.304;2022-08-01T01:38:42;101384.59;;;23.35;47.67
63652;BME280;49801;37.536;-122.304;2022-08-01T01:39:09;101371.38;;;23.26;47.65
63652;BME280;49801;37.536;-122.304;2022-08-01T01:39:36;101367.91;;;23.30;47.59
63652;BME280;49801;37.536;-122.304;2022-08-01T01:40:05;101366.50;;;23.16;47.71
63652;BME280;49801;37.536;-122.304;2022-08-01T01:40:34;101365.28;;;23.12;48.11
63652;BME280;49801;37.536;-122.304;2022-08-01T01:41:01;101333.31;;;22.92;47.99
63652;BME280;49801;37.536;-122.304;2022-08-01T01:41:28;101308.00;;;22.72;48.28
63652;BME280;49801;37.536;-122.304;2022-08-01T01:41:57;101382.06;;;23.22;48.07
63652;BME280;49801;37.536;-122.304;2022-08-01T01:42:25;101333.31;;;22.92;47.73
63652;BME280;49801;37.536;-122.304;2022-08-01T01:42:55;101358.56;;;23.08;47.90
63652;BME280;49801;37.536;-122.304;2022-08-01T01:43:22;101380.13;;;23.34;47.42
63652;BME280;49801;37.536;-122.304;2022-08-01T01:43:49;101335.13;;;23.10;47.66
63652;BME280;49801;37.536;-122.304;2022-08-01T01:44:17;101370.78;;;23.35;47.52
63652;BME280;49801;37.536;-122.304;2022-08-01T01:44:45;101367.41;;;23.33;47.65
63652;BME280;49801;37.536;-122.304;2022-08-01T01:45:13;101364.41;;;23.35;47.67
63652;BME280;49801;37.536;-122.304;2022-08-01T01:45:41;101319.91;;;23.08;47.90
63652;BME280;49801;37.536;-122.304;2022-08-01T01:46:09;101325.28;;;23.14;47.80
63652;BME280;49801;37.536;-122.304;2022-08-01T01:46:36;101366.19;;;23.29;47.72
63652;BME280;49801;37.536;-122.304;2022-08-01T01:47:04;101345.34;;;23.10;47.90
63652;BME280;49801;37.536;-122.304;2022-08-01T01:47:32;101332.22;;;23.05;47.78
63652;BME280;49801;37.536;-122.304;2022-08-01T01:48:01;101379.66;;;23.37;47.76
63652;BME280;49801;37.536;-122.304;2022-08-01T01:48:28;101372.72;;;23.35;47.58
63652;BME280;49801;37.536;-122.304;2022-08-01T01:48:55;101380.88;;;23.42;47.39
63652;BME280;49801;37.536;-122.304;2022-08-01T01:49:24;101362.47;;;23.35;47.03
63652;BME280;49801;37.536;-122.304;2022-08-01T01:49:52;101365.13;;;23.42;46.88
63652;BME280;49801;37.536;-122.304;2022-08-01T01:50:23;101383.84;;;23.52;46.88
63652;BME280;49801;37.536;-122.304;2022-08-01T01:50:51;101375.56;;;23.52;46.81
63652;BME280;49801;37.536;-122.304;2022-08-01T01:51:18;101371.94;;;23.51;46.90
63652;BME280;49801;37.536;-122.304;2022-08-01T01:51:47;101364.66;;;23.33;46.64
63652;BME280;49801;37.536;-122.304;2022-08-01T01:52:17;101386.84;;;23.50;47.14
63652;BME280;49801;37.536;-122.304;2022-08-01T01:52:45;101356.50;;;23.27;47.05
63652;BME280;49801;37.536;-122.304;2022-08-01T01:53:14;101376.19;;;23.30;46.95
63652;BME280;49801;37.536;-122.304;2022-08-01T01:53:42;101352.44;;;23.17;47.21
63652;BME280;49801;37.536;-122.304;2022-08-01T01:54:10;101362.88;;;23.15;47.23
63652;BME280;49801;37.536;-122.304;2022-08-01T01:54:47;101370.53;;;23.01;47.54
63652;BME280;49801;37.536;-122.304;2022-08-01T01:55:18;101373.16;;;22.96;47.56
63652;BME280;49801;37.536;-122.304;2022-08-01T01:55:52;101385.72;;;23.11;47.58
63652;BME280;49801;37.536;-122.304;2022-08-01T01:56:20;101395.41;;;23.13;47.59
63652;BME280;49801;37.536;-122.304;2022-08-01T01:56:50;101348.44;;;22.90;47.43
63652;BME280;49801;37.536;-122.304;2022-08-01T01:57:19;101397.59;;;23.23;47.43
63652;BME280;49801;37.536;-122.304;2022-08-01T01:57:47;101315.34;;;22.78;47.26
63652;BME280;49801;37.536;-122.304;2022-08-01T01:58:34;101405.22;;;23.45;47.26
63652;BME280;49801;37.536;-122.304;2022-08-01T01:59:04;101402.25;;;23.34;47.50
63652;BME280;49801;37.536;-122.304;2022-08-01T01:59:32;101339.09;;;23.02;46.88
63652;BME280;49801;37.536;-122.304;2022-08-01T02:00:00;101382.81;;;23.06;47.68
63652;BME280;49801;37.536;-122.304;2022-08-01T02:00:28;101389.63;;;22.91;48.04
63652;BME280;49801;37.536;-122.304;2022-08-01T02:00:57;101384.94;;;22.80;48.03
63652;BME280;49801;37.536;-122.304;2022-08-01T02:01:27;101401.88;;;22.95;48.16
63652;BME280;49801;37.536;-122.304;2022-08-01T02:01:59;101389.50;;;22.86;48.26
63652;BME280;49801;37.536;-122.304;2022-08-01T02:02:28;101392.63;;;22.78;48.49
63652;BME280;49801;37.536;-122.304;2022-08-01T02:02:55;101410.16;;;22.83;48.53
63652;BME280;49801;37.536;-122.304;2022-08-01T02:03:23;101416.63;;;22.89;48.32
63652;BME280;49801;37.536;-122.304;2022-08-01T02:03:51;101368.13;;;22.70;48.20
63652;BME280;49801;37.536;-122.304;2022-08-01T02:04:20;101358.03;;;22.63;48.07
63652;BME280;49801;37.536;-122.304;2022-08-01T02:04:48;101346.75;;;22.53;48.51
63652;BME280;49801;37.536;-122.304;2022-08-01T02:05:15;101371.00;;;22.63;48.41
63652;BME280;49801;37.536;-122.304;2022-08-01T02:05:41;101283.78;;;22.08;48.48
63652;BME280;49801;37.536;-122.304;2022-08-01T02:06:12;101297.56;;;22.08;48.37
63652;BME280;49801;37.536;-122.304;2022-08-01T02:06:39;101327.72;;;22.21;48.57
63652;BME280;49801;37.536;-122.304;2022-08-01T02:07:06;101378.97;;;22.29;49.15
63652;BME280;49801;37.536;-122.304;2022-08-01T02:07:34;101378.41;;;22.39;48.88
63652;BME280;49801;37.536;-122.304;2022-08-01T02:08:04;101404.81;;;22.58;49.04
63652;BME280;49801;37.536;-122.304;2022-08-01T02:08:31;101414.94;;;22.64;48.82
63652;BME280;49801;37.536;-122.304;2022-08-01T02:09:00;101411.56;;;22.62;49.23
63652;BME280;49801;37.536;-122.304;2022-08-01T02:09:28;101406.16;;;22.56;49.07
63652;BME280;49801;37.536;-122.304;2022-08-01T02:09:56;101393.59;;;22.29;49.48
63652;BME280;49801;37.536;-122.304;2022-08-01T02:10:22;101359.81;;;22.16;49.37
63652;BME280;49801;37.536;-122.304;2022-08-01T02:10:52;101411.91;;;22.54;49.33
63652;BME280;49801;37.536;-122.304;2022-08-01T02:11:51;101412.69;;;22.43;49.50
63652;BME280;49801;37.536;-122.304;2022-08-01T02:12:19;101341.75;;;21.89;49.89
63652;BME280;49801;37.536;-122.304;2022-08-01T02:12:49;101392.22;;;22.20;49.56
63652;BME280;49801;37.536;-122.304;2022-08-01T02:13:16;101350.06;;;22.01;49.64
63652;BME280;49801;37.536;-122.304;2022-08-01T02:13:43;101329.97;;;21.82;49.68
63652;BME280;49801;37.536;-122.304;2022-08-01T02:14:11;101402.78;;;22.23;49.68
63652;BME280;49801;37.536;-122.304;2022-08-01T02:14:38;101373.31;;;22.05;49.68
63652;BME280;49801;37.536;-122.304;2022-08-01T02:15:06;101410.19;;;22.11;50.04
63652;BME280;49801;37.536;-122.304;2022-08-01T02:15:35;101323.59;;;21.51;50.28
63652;BME280;49801;37.536;-122.304;2022-08-01T02:16:05;101396.09;;;22.01;50.18
63652;BME280;49801;37.536;-122.304;2022-08-01T02:16:35;101408.72;;;22.08;50.49
63652;BME280;49801;37.536;-122.304;2022-08-01T02:17:03;101359.53;;;21.75;50.33
63652;BME280;49801;37.536;-122.304;2022-08-01T02:17:30;101388.16;;;21.92;50.06
63652;BME280;49801;37.536;-122.304;2022-08-01T02:17:58;101321.44;;;21.53;50.15
63652;BME280;49801;37.536;-122.304;2022-08-01T02:18:25;101403.75;;;21.99;50.57
63652;BME280;49801;37.536;-122.304;2022-08-01T02:18:52;101408.19;;;22.00;50.58
63652;BME280;49801;37.536;-122.304;2022-08-01T02:19:19;101227.69;;;20.93;50.40
63652;BME280;49801;37.536;-122.304;2022-08-01T02:19:46;101397.84;;;21.95;50.28
63652;BME280;49801;37.536;-122.304;2022-08-01T02:20:13;101405.59;;;22.05;50.58
63652;BME280;49801;37.536;-122.304;2022-08-01T02:20:59;101413.72;;;22.00;50.73
63652;BME280;49801;37.536;-122.304;2022-08-01T02:21:34;101404.84;;;21.79;50.90
63652;BME280;49801;37.536;-122.304;2022-08-01T02:22:19;101374.44;;;21.86;50.95
63652;BME280;49801;37.536;-122.304;2022-08-01T02:23:15;101398.94;;;21.94;50.61
63652;BME280;49801;37.536;-122.304;2022-08-01T02:23:42;101385.56;;;21.79;51.11
63652;BME280;49801;37.536;-122.304;2022-08-01T02:24:17;101410.06;;;21.87;51.16
63652;BME280;49801;37.536;-122.304;2022-08-01T02:24:50;101288.78;;;21.20;50.93
63652;BME280;49801;37.536;-122.304;2022-08-01T02:25:27;101408.94;;;21.77;51.62
63652;BME280;49801;37.536;-122.304;2022-08-01T02:26:00;101262.16;;;20.77;51.62
63652;BME280;49801;37.536;-122.304;2022-08-01T02:26:28;101386.88;;;21.58;51.78
63652;BME280;49801;37.536;-122.304;2022-08-01T02:26:59;101365.19;;;21.43;52.02
63652;BME280;49801;37.536;-122.304;2022-08-01T02:27:30;101420.34;;;21.80;51.64
63652;BME280;49801;37.536;-122.304;2022-08-01T02:28:13;101410.00;;;21.76;52.11
63652;BME280;49801;37.536;-122.304;2022-08-01T02:28:47;101414.28;;;21.71;51.98
63652;BME280;49801;37.536;-122.304;2022-08-01T02:29:21;101398.44;;;21.67;52.03
63652;BME280;49801;37.536;-122.304;2022-08-01T02:29:58;101377.00;;;21.50;52.08
63652;BME280;49801;37.536;-122.304;2022-08-01T02:30:25;101383.53;;;21.56;52.05
63652;BME280;49801;37.536;-122.304;2022-08-01T02:30:56;101414.06;;;21.73;52.14
63652;BME280;49801;37.536;-122.304;2022-08-01T02:31:24;101391.22;;;21.66;51.96
63652;BME280;49801;37.536;-122.304;2022-08-01T02:31:54;101402.94;;;21.80;51.79
63652;BME280;49801;37.536;-122.304;2022-08-01T02:32:24;101382.81;;;21.61;52.00
63652;BME280;49801;37.536;-122.304;2022-08-01T02:32:57;101406.41;;;21.75;51.88
63652;BME280;49801;37.536;-122.304;2022-08-01T02:33:37;101415.34;;;21.70;51.91
63652;BME280;49801;37.536;-122.304;2022-08-01T02:34:05;101405.66;;;21.68;52.19
63652;BME280;49801;37.536;-122.304;2022-08-01T02:34:33;101411.25;;;21.61;52.09
63652;BME280;49801;37.536;-122.304;2022-08-01T02:35:02;101394.22;;;21.46;52.01
63652;BME280;49801;37.536;-122.304;2022-08-01T02:35:32;101404.56;;;21.50;52.08
63652;BME280;49801;37.536;-122.304;2022-08-01T02:36:01;101381.31;;;21.46;51.72
63652;BME280;49801;37.536;-122.304;2022-08-01T02:36:30;101403.97;;;21.67;51.85